• location
  • image
mod_vvisit_countermod_vvisit_countermod_vvisit_countermod_vvisit_countermod_vvisit_countermod_vvisit_counter
mod_vvisit_counterToday71
mod_vvisit_counterYesterday670
mod_vvisit_counterThis week3641
mod_vvisit_counterLast week5838
mod_vvisit_counterThis month9479
mod_vvisit_counterLast month14939
mod_vvisit_counterAll days290390

We have: 1 guests online
Your IP: 54.90.109.107
 , 
Today: Feb 13, 2016
Airport

AP V2 EN

 

 

You can watch a film about services of Siauliai International Airport

Today

Saturday, 13 February 2016

Weather Forecast

Siauliai 1 °C
   

Aviation Weather Forecast

[source: ADDS]
METAR
EYSA 131020Z 14010KT 6000 OVC004 01/01 Q1004 R14L/29//95 R14R/29//95 YLO2 NOSIG =
TAF
TAF EYSA 130800Z 1309/1318 15010KT 5000 BR OVC005 TEMPO 1309/1313 1500 SNRA TEMPO 1316/1318 1500 SNRA BKN002 =
SR / SS: 05:54 / 15:29 UTC (EYSA 2016-02-13)

Search

Who's Online

We have 1 guest online

tic logo en